createdAt,value
2022-11-20T00:00:20.450Z,9.73
2022-11-20T00:02:47.145Z,8.40
2022-11-20T00:05:13.825Z,8.80
2022-11-20T00:07:40.561Z,9.32
2022-11-20T00:10:07.632Z,8.05
2022-11-20T00:12:34.338Z,9.02
2022-11-20T00:15:01.003Z,9.13
2022-11-20T00:17:27.749Z,9.40
2022-11-20T00:19:54.493Z,9.13
2022-11-20T00:22:24.401Z,64.57
2022-11-20T00:24:51.107Z,16.40
2022-11-20T00:27:17.857Z,10.00
2022-11-20T00:29:44.580Z,8.98
2022-11-20T00:32:11.359Z,9.10
2022-11-20T00:34:38.069Z,9.15
2022-11-20T00:37:04.815Z,8.63
2022-11-20T00:39:31.647Z,8.85
2022-11-20T00:41:58.350Z,8.57
2022-11-20T00:44:24.986Z,9.43
2022-11-20T00:46:51.670Z,9.27
2022-11-20T00:49:18.771Z,9.30
2022-11-20T00:51:45.905Z,9.27
2022-11-20T00:54:12.633Z,8.52
2022-11-20T00:56:39.401Z,9.18
2022-11-20T00:59:06.131Z,9.10
2022-11-20T01:01:32.951Z,8.55
2022-11-20T01:04:02.912Z,9.05
2022-11-20T01:06:37.657Z,9.07
2022-11-20T01:09:08.577Z,9.23
2022-11-20T01:11:37.437Z,9.50
2022-11-20T01:14:07.396Z,8.85
2022-11-20T01:16:37.313Z,9.88
2022-11-20T01:19:11.584Z,8.77
2022-11-20T01:21:41.343Z,8.85
2022-11-20T01:24:12.740Z,9.32
2022-11-20T01:26:42.071Z,9.13
2022-11-20T01:29:14.504Z,9.63
2022-11-20T01:31:41.196Z,9.43
2022-11-20T01:34:10.926Z,10.20
2022-11-20T01:36:38.321Z,9.63
2022-11-20T01:39:08.636Z,9.90
2022-11-20T01:41:54.514Z,9.43
2022-11-20T01:44:23.206Z,9.25
2022-11-20T01:46:59.819Z,9.82
2022-11-20T01:49:36.126Z,9.60
2022-11-20T01:52:06.607Z,9.82
2022-11-20T01:54:40.056Z,9.70
2022-11-20T01:57:07.707Z,10.50
2022-11-20T01:59:34.941Z,9.52
2022-11-20T02:02:01.871Z,9.75
2022-11-20T02:04:28.643Z,10.38
2022-11-20T02:07:00.318Z,9.50
2022-11-20T02:09:27.782Z,22.80
2022-11-20T02:11:54.872Z,11.55
2022-11-20T02:14:23.118Z,10.00
2022-11-20T02:16:50.753Z,29.70
2022-11-20T02:19:27.660Z,13.35
2022-11-20T02:22:03.868Z,9.82
2022-11-20T02:24:30.622Z,10.23
2022-11-20T02:27:03.997Z,11.50
2022-11-20T02:29:39.468Z,11.65
2022-11-20T02:32:33.709Z,9.95
2022-11-20T02:35:11.151Z,9.40
2022-11-20T02:37:41.078Z,10.85
2022-11-20T02:40:08.671Z,10.18
2022-11-20T02:42:36.348Z,9.93
2022-11-20T02:45:03.972Z,9.75
2022-11-20T02:47:30.672Z,11.30
2022-11-20T02:49:57.351Z,16.52
2022-11-20T02:52:24.152Z,10.48
2022-11-20T02:54:51.042Z,9.95
2022-11-20T02:57:17.831Z,10.05
2022-11-20T02:59:44.489Z,10.00
2022-11-20T03:02:11.323Z,10.38
2022-11-20T03:04:38.125Z,10.35
2022-11-20T03:07:06.212Z,11.07
2022-11-20T03:09:32.890Z,10.30
2022-11-20T03:11:59.560Z,10.50
2022-11-20T03:14:26.247Z,10.60
2022-11-20T03:16:53.425Z,10.15
2022-11-20T03:19:20.385Z,10.32
2022-11-20T03:21:47.375Z,10.13
2022-11-20T03:24:14.708Z,11.32
2022-11-20T03:26:41.706Z,10.88
2022-11-20T03:29:08.675Z,10.73
2022-11-20T03:31:43.608Z,10.30
2022-11-20T03:34:11.942Z,10.65
2022-11-20T03:36:43.187Z,10.68
2022-11-20T03:39:10.478Z,9.90
2022-11-20T03:41:41.608Z,10.65
2022-11-20T03:44:09.919Z,10.45
2022-11-20T03:46:37.069Z,10.45
2022-11-20T03:49:04.171Z,10.63
2022-11-20T03:51:32.956Z,13.85
2022-11-20T03:54:01.228Z,10.65
2022-11-20T03:56:31.421Z,11.25
2022-11-20T03:58:58.339Z,11.23
2022-11-20T04:01:31.121Z,11.15
2022-11-20T04:03:58.238Z,10.35
2022-11-20T04:06:36.379Z,10.85
2022-11-20T04:09:04.019Z,11.13
2022-11-20T04:11:35.846Z,10.85
2022-11-20T04:14:04.560Z,11.50
2022-11-20T04:16:32.976Z,11.15
2022-11-20T04:19:01.668Z,10.60
2022-11-20T04:21:28.822Z,10.88
2022-11-20T04:23:56.385Z,12.00
2022-11-20T04:26:24.392Z,12.07
2022-11-20T04:28:51.242Z,11.63
2022-11-20T04:31:19.978Z,11.32
2022-11-20T04:33:46.937Z,10.82
2022-11-20T04:36:21.107Z,11.18
2022-11-20T04:38:53.866Z,12.90
2022-11-20T04:41:25.758Z,13.43
2022-11-20T04:43:54.645Z,12.07
2022-11-20T04:46:21.808Z,10.82
2022-11-20T04:48:49.100Z,11.57
2022-11-20T04:51:15.944Z,11.38
2022-11-20T04:53:42.622Z,12.05
2022-11-20T04:56:11.421Z,11.80
2022-11-20T04:58:38.269Z,14.00
2022-11-20T05:01:06.482Z,13.27
2022-11-20T05:03:35.540Z,11.13
2022-11-20T05:06:06.426Z,12.30
2022-11-20T05:08:33.690Z,12.63
2022-11-20T05:11:04.439Z,11.52
2022-11-20T05:13:31.244Z,12.68
2022-11-20T05:16:05.948Z,11.90
2022-11-20T05:18:32.835Z,12.40
2022-11-20T05:20:59.837Z,11.88
2022-11-20T05:23:28.302Z,12.40
2022-11-20T05:25:59.062Z,16.13
2022-11-20T05:28:27.555Z,13.30
2022-11-20T05:30:54.320Z,12.40
2022-11-20T05:33:21.359Z,13.20
2022-11-20T05:35:49.287Z,11.23
2022-11-20T05:38:16.469Z,12.93
2022-11-20T05:40:43.342Z,12.27
2022-11-20T05:43:10.102Z,12.75
2022-11-20T05:45:36.891Z,13.52
2022-11-20T05:48:06.735Z,12.90
2022-11-20T05:50:33.538Z,14.13
2022-11-20T05:53:00.954Z,13.98
2022-11-20T05:55:28.229Z,13.13
2022-11-20T05:57:56.124Z,11.45
2022-11-20T06:00:23.404Z,15.02
2022-11-20T06:02:56.341Z,15.32
2022-11-20T06:05:23.084Z,20.40
2022-11-20T06:07:49.759Z,15.00
2022-11-20T06:10:16.457Z,12.27
2022-11-20T06:12:43.151Z,12.48
2022-11-20T06:15:10.575Z,14.00
2022-11-20T06:17:37.516Z,13.05
2022-11-20T06:20:04.456Z,12.10
2022-11-20T06:22:31.172Z,13.77
2022-11-20T06:24:58.040Z,12.48
2022-11-20T06:27:24.724Z,12.63
2022-11-20T06:29:52.128Z,14.25
2022-11-20T06:32:18.773Z,13.80
2022-11-20T06:34:45.475Z,11.95
2022-11-20T06:37:12.191Z,12.38
2022-11-20T06:39:38.970Z,11.93
2022-11-20T06:42:05.833Z,12.45
2022-11-20T06:44:32.679Z,12.50
2022-11-20T06:46:59.628Z,13.07
2022-11-20T06:49:27.005Z,11.65
2022-11-20T06:51:53.697Z,11.95
2022-11-20T06:54:20.340Z,11.50
2022-11-20T06:56:50.355Z,12.02
2022-11-20T06:59:17.017Z,12.70
2022-11-20T07:01:43.639Z,13.60
2022-11-20T07:04:10.390Z,11.93
2022-11-20T07:06:37.356Z,14.00
2022-11-20T07:09:05.454Z,12.07
2022-11-20T07:11:35.530Z,12.70
2022-11-20T07:14:02.184Z,13.23
2022-11-20T07:16:28.874Z,12.23
2022-11-20T07:18:55.695Z,13.18
2022-11-20T07:21:22.628Z,13.05
2022-11-20T07:23:49.937Z,12.43
2022-11-20T07:26:16.759Z,12.85
2022-11-20T07:28:45.786Z,12.05
2022-11-20T07:31:18.729Z,13.43
2022-11-20T07:33:46.318Z,12.48
2022-11-20T07:36:13.260Z,12.07
2022-11-20T07:38:40.011Z,13.02
2022-11-20T07:41:06.775Z,14.07
2022-11-20T07:43:38.377Z,12.32
2022-11-20T07:46:07.692Z,13.98
2022-11-20T07:48:37.554Z,14.15
2022-11-20T07:51:04.270Z,16.23
2022-11-20T07:53:31.069Z,19.17
2022-11-20T07:56:01.120Z,14.57
2022-11-20T07:58:29.990Z,13.93
2022-11-20T08:00:57.234Z,13.63
2022-11-20T08:03:25.156Z,13.07
2022-11-20T08:05:52.615Z,12.73
2022-11-20T08:08:19.267Z,12.95
2022-11-20T08:10:46.093Z,13.52
2022-11-20T08:13:31.281Z,13.18
2022-11-20T08:15:57.926Z,13.00
2022-11-20T08:18:32.858Z,13.20
2022-11-20T08:21:03.813Z,12.80
2022-11-20T08:23:30.591Z,14.50
2022-11-20T08:25:57.335Z,12.63
2022-11-20T08:28:24.399Z,14.02
2022-11-20T08:30:51.527Z,12.80
2022-11-20T08:33:19.139Z,13.55
2022-11-20T08:35:46.332Z,14.35
2022-11-20T08:38:13.021Z,13.57
2022-11-20T08:40:39.684Z,15.38
2022-11-20T08:43:06.419Z,13.38
2022-11-20T08:45:35.032Z,12.45
2022-11-20T08:48:03.799Z,12.35
2022-11-20T08:50:33.283Z,12.98
2022-11-20T08:53:05.215Z,11.95
2022-11-20T08:55:32.530Z,12.60
2022-11-20T08:57:59.134Z,13.05
2022-11-20T09:00:25.964Z,14.32
2022-11-20T09:02:53.417Z,17.25
2022-11-20T09:05:20.228Z,13.38
2022-11-20T09:07:46.936Z,13.52
2022-11-20T09:10:24.000Z,12.63
2022-11-20T09:12:52.876Z,12.48
2022-11-20T09:15:20.285Z,14.73
2022-11-20T09:18:01.274Z,13.70
2022-11-20T09:20:29.766Z,13.35
2022-11-20T09:22:57.032Z,12.65
2022-11-20T09:25:23.867Z,13.15
2022-11-20T09:27:59.361Z,13.10
2022-11-20T09:30:26.539Z,12.57
2022-11-20T09:32:53.385Z,12.95
2022-11-20T09:35:20.314Z,12.10
2022-11-20T09:37:47.048Z,13.50
2022-11-20T09:40:29.166Z,12.93
2022-11-20T09:43:17.727Z,12.88
2022-11-20T09:46:10.144Z,12.93
2022-11-20T09:48:37.041Z,13.02
2022-11-20T09:51:23.402Z,12.35
2022-11-20T09:54:02.200Z,12.23
2022-11-20T09:56:30.137Z,13.25
2022-11-20T09:59:00.976Z,13.20
2022-11-20T10:01:31.902Z,13.23
2022-11-20T10:03:59.418Z,12.82
2022-11-20T10:06:31.981Z,12.45
2022-11-20T10:09:32.139Z,11.80
2022-11-20T10:12:10.995Z,13.32
2022-11-20T10:14:51.283Z,12.68
2022-11-20T10:17:45.818Z,13.05
2022-11-20T10:20:29.050Z,12.43
2022-11-20T10:23:25.980Z,12.13
2022-11-20T10:26:05.411Z,13.05
2022-11-20T10:28:58.583Z,12.70
2022-11-20T10:31:40.246Z,11.90
2022-11-20T10:34:18.215Z,10.90
2022-11-20T10:37:12.117Z,12.45
2022-11-20T10:40:00.899Z,12.35
2022-11-20T10:42:45.522Z,11.77
2022-11-20T10:45:30.607Z,11.55
2022-11-20T10:48:18.627Z,11.10
2022-11-20T10:51:06.934Z,11.85
2022-11-20T10:53:44.290Z,11.55
2022-11-20T10:56:25.921Z,10.77
2022-11-20T10:59:11.658Z,10.65
2022-11-20T11:01:44.743Z,10.98
2022-11-20T11:04:44.535Z,11.55
2022-11-20T11:07:22.917Z,11.00
2022-11-20T11:09:58.882Z,10.07
2022-11-20T11:12:27.156Z,10.07
2022-11-20T11:14:56.535Z,10.23
2022-11-20T11:17:24.893Z,10.25
2022-11-20T11:19:59.732Z,8.80
2022-11-20T11:22:26.519Z,9.27
2022-11-20T11:24:54.348Z,9.38
2022-11-20T11:27:21.125Z,10.10
2022-11-20T11:29:48.228Z,9.18
2022-11-20T11:32:24.282Z,8.80
2022-11-20T11:35:06.143Z,8.65
2022-11-20T11:37:37.434Z,8.27
2022-11-20T11:42:56.619Z,8.73
2022-11-20T11:45:23.673Z,8.20
2022-11-20T11:47:52.716Z,8.40
2022-11-20T11:50:20.909Z,8.48
2022-11-20T11:53:04.845Z,7.30
2022-11-20T11:55:39.094Z,7.68
2022-11-20T11:58:21.400Z,7.93
2022-11-20T12:00:56.502Z,6.80
2022-11-20T12:03:36.098Z,7.15
2022-11-20T12:06:21.145Z,7.07
2022-11-20T12:09:00.795Z,6.70
2022-11-20T12:11:41.252Z,6.45
2022-11-20T12:14:33.505Z,6.72
2022-11-20T12:17:01.614Z,6.78
2022-11-20T12:19:32.929Z,6.95
2022-11-20T12:22:04.984Z,6.85
2022-11-20T12:25:07.594Z,6.07
2022-11-20T12:27:41.338Z,6.47
2022-11-20T12:30:21.907Z,6.32
2022-11-20T12:33:36.905Z,6.47
2022-11-20T12:36:15.477Z,6.30
2022-11-20T12:38:54.382Z,6.50
2022-11-20T12:42:11.208Z,6.80
2022-11-20T12:45:03.192Z,6.28
2022-11-20T12:47:51.520Z,6.95
2022-11-20T12:50:24.609Z,7.05
2022-11-20T12:52:58.057Z,7.13
2022-11-20T12:55:25.795Z,6.82
2022-11-20T12:57:58.595Z,6.78
2022-11-20T13:00:26.400Z,7.03
2022-11-20T13:03:06.266Z,7.43
2022-11-20T13:05:39.138Z,7.45
2022-11-20T13:08:11.785Z,6.65
2022-11-20T13:10:46.731Z,6.85
2022-11-20T13:13:32.284Z,6.70
2022-11-20T13:16:05.330Z,6.78
2022-11-20T13:18:40.923Z,6.28
2022-11-20T13:21:36.127Z,6.82
2022-11-20T13:24:22.487Z,8.13
2022-11-20T13:26:49.429Z,7.40
2022-11-20T13:29:20.384Z,7.30
2022-11-20T13:31:48.516Z,7.00
2022-11-20T13:34:25.836Z,6.88
2022-11-20T13:36:57.724Z,6.75
2022-11-20T13:39:50.958Z,6.63
2022-11-20T13:42:17.614Z,6.55
2022-11-20T13:45:01.661Z,6.35
2022-11-20T13:47:30.611Z,7.00
2022-11-20T13:50:00.549Z,6.80
2022-11-20T13:52:33.414Z,6.22
2022-11-20T13:55:17.990Z,5.68
2022-11-20T13:58:09.476Z,5.93
2022-11-20T14:00:44.940Z,5.60
2022-11-20T14:03:43.755Z,6.40
2022-11-20T14:06:28.964Z,8.13
2022-11-20T14:08:56.388Z,5.97
2022-11-20T14:11:25.970Z,5.43
2022-11-20T14:14:04.356Z,5.65
2022-11-20T14:16:36.755Z,5.07
2022-11-20T14:19:22.028Z,5.82
2022-11-20T14:22:08.226Z,5.72
2022-11-20T14:24:35.262Z,6.03
2022-11-20T14:27:02.131Z,5.95
2022-11-20T14:29:31.226Z,6.68
2022-11-20T14:31:58.360Z,5.80
2022-11-20T14:34:35.849Z,6.22
2022-11-20T14:37:05.620Z,6.18
2022-11-20T14:39:36.362Z,5.80
2022-11-20T14:42:12.069Z,6.70
2022-11-20T14:44:39.045Z,6.85
2022-11-20T14:47:06.180Z,6.32
2022-11-20T14:49:33.333Z,7.03
2022-11-20T14:52:01.824Z,6.93
2022-11-20T14:54:30.196Z,6.72
2022-11-20T14:56:57.571Z,7.18
2022-11-20T14:59:29.482Z,6.95
2022-11-20T15:02:05.545Z,7.20
2022-11-20T15:04:32.629Z,7.50
2022-11-20T15:07:00.835Z,7.82
2022-11-20T15:09:28.736Z,7.65
2022-11-20T15:11:57.518Z,7.10
2022-11-20T15:14:25.601Z,8.80
2022-11-20T15:16:53.202Z,8.27
2022-11-20T15:19:23.172Z,8.35
2022-11-20T15:21:50.324Z,7.63
2022-11-20T15:24:17.956Z,7.82
2022-11-20T15:26:44.871Z,7.88
2022-11-20T15:29:19.826Z,8.40
2022-11-20T15:31:46.927Z,8.25
2022-11-20T15:34:14.951Z,8.13
2022-11-20T15:36:42.724Z,7.97
2022-11-20T15:39:09.942Z,7.35
2022-11-20T15:41:37.388Z,7.63
2022-11-20T15:44:07.324Z,7.93
2022-11-20T15:46:41.209Z,7.45
2022-11-20T15:49:12.533Z,8.13
2022-11-20T15:51:48.228Z,8.45
2022-11-20T15:54:18.916Z,7.47
2022-11-20T15:56:45.651Z,7.75
2022-11-20T15:59:12.314Z,7.43
2022-11-20T16:01:39.233Z,8.00
2022-11-20T16:04:09.041Z,7.78
2022-11-20T16:06:35.738Z,7.55
2022-11-20T16:09:02.444Z,8.02
2022-11-20T16:11:29.348Z,8.05
2022-11-20T16:14:14.564Z,7.68
2022-11-20T16:16:42.588Z,7.95
2022-11-20T16:19:16.660Z,7.43
2022-11-20T16:21:46.386Z,7.80
2022-11-20T16:24:14.771Z,8.73
2022-11-20T16:26:41.834Z,8.35
2022-11-20T16:29:09.051Z,8.95
2022-11-20T16:31:35.974Z,8.60
2022-11-20T16:34:10.153Z,8.55
2022-11-20T16:36:41.248Z,10.23
2022-11-20T16:39:07.979Z,15.52
2022-11-20T16:41:35.163Z,14.75
2022-11-20T16:44:07.128Z,12.73
2022-11-20T16:46:33.891Z,15.05
2022-11-20T16:49:02.415Z,13.65
2022-11-20T16:51:31.335Z,12.52
2022-11-20T16:53:58.144Z,12.25
2022-11-20T16:56:26.972Z,16.08
2022-11-20T16:58:55.806Z,14.82
2022-11-20T17:01:23.836Z,13.57
2022-11-20T17:03:56.631Z,13.05
2022-11-20T17:06:26.246Z,11.98
2022-11-20T17:08:54.526Z,10.15
2022-11-20T17:11:28.239Z,10.05
2022-11-20T17:13:56.202Z,9.10
2022-11-20T17:16:24.662Z,10.07
2022-11-20T17:18:51.624Z,10.05
2022-11-20T17:21:19.084Z,10.13
2022-11-20T17:23:47.351Z,10.88
2022-11-20T17:26:19.005Z,10.88
2022-11-20T17:28:47.526Z,11.50
2022-11-20T17:31:16.373Z,11.02
2022-11-20T17:33:45.560Z,11.40
2022-11-20T17:36:13.930Z,11.75
2022-11-20T17:38:40.932Z,11.13
2022-11-20T17:41:08.468Z,11.88
2022-11-20T17:43:38.726Z,12.50
2022-11-20T17:46:18.708Z,11.27
2022-11-20T17:48:47.499Z,10.40
2022-11-20T17:51:19.990Z,10.38
2022-11-20T17:53:49.209Z,11.30
2022-11-20T17:56:51.348Z,10.13
2022-11-20T17:59:19.081Z,10.02
2022-11-20T18:01:46.296Z,9.77
2022-11-20T18:04:13.912Z,10.18
2022-11-20T18:06:41.123Z,10.70
2022-11-20T18:09:14.204Z,11.30
2022-11-20T18:11:42.634Z,13.30
2022-11-20T18:14:26.706Z,14.82
2022-11-20T18:16:55.740Z,14.98
2022-11-20T18:19:32.173Z,14.15
2022-11-20T18:22:02.220Z,14.70
2022-11-20T18:24:29.202Z,12.35
2022-11-20T18:26:57.998Z,12.98
2022-11-20T18:29:26.335Z,12.80
2022-11-20T18:31:54.402Z,12.30
2022-11-20T18:34:21.739Z,11.25
2022-11-20T18:36:49.059Z,10.85
2022-11-20T18:39:16.165Z,10.23
2022-11-20T18:42:01.772Z,10.82
2022-11-20T18:44:49.214Z,11.60
2022-11-20T18:47:20.330Z,10.15
2022-11-20T18:49:52.972Z,10.32
2022-11-20T18:52:23.252Z,9.40
2022-11-20T18:54:50.400Z,9.93
2022-11-20T18:57:21.826Z,9.15
2022-11-20T18:59:48.720Z,9.60
2022-11-20T19:02:18.892Z,9.57
2022-11-20T19:04:45.679Z,9.68
2022-11-20T19:07:13.079Z,10.43
2022-11-20T19:09:44.547Z,9.82
2022-11-20T19:12:13.049Z,9.65
2022-11-20T19:14:39.887Z,11.80
2022-11-20T19:17:07.295Z,11.77
2022-11-20T19:19:35.214Z,11.60
2022-11-20T19:22:02.239Z,11.18
2022-11-20T19:24:29.087Z,11.52
2022-11-20T19:26:56.412Z,12.18
2022-11-20T19:29:24.830Z,12.32
2022-11-20T19:31:52.071Z,11.82
2022-11-20T19:34:18.844Z,10.40
2022-11-20T19:36:46.028Z,10.00
2022-11-20T19:39:13.117Z,10.43
2022-11-20T19:41:41.431Z,10.00
2022-11-20T19:44:10.749Z,9.65
2022-11-20T19:46:38.895Z,10.68
2022-11-20T19:49:07.657Z,9.73
2022-11-20T19:51:35.295Z,10.40
2022-11-20T19:54:03.117Z,9.65
2022-11-20T19:56:31.571Z,9.63
2022-11-20T19:58:58.509Z,9.77
2022-11-20T20:01:27.918Z,8.80
2022-11-20T20:03:56.819Z,9.48
2022-11-20T20:06:26.073Z,10.10
2022-11-20T20:09:02.137Z,10.40
2022-11-20T20:11:30.785Z,9.95
2022-11-20T20:13:59.205Z,10.27
2022-11-20T20:16:26.533Z,12.85
2022-11-20T20:19:03.858Z,19.42
2022-11-20T20:21:31.624Z,38.28
2022-11-20T20:23:59.947Z,51.28
2022-11-20T20:26:28.940Z,35.13
2022-11-20T20:28:56.874Z,24.17
2022-11-20T20:31:26.726Z,15.68
2022-11-20T20:33:53.465Z,12.77
2022-11-20T20:36:22.057Z,12.30
2022-11-20T20:38:52.519Z,12.45
2022-11-20T20:41:20.178Z,12.27
2022-11-20T20:44:05.646Z,13.10
2022-11-20T20:46:32.389Z,12.07
2022-11-20T20:48:59.137Z,26.92
2022-11-20T20:51:25.915Z,26.60
2022-11-20T20:53:52.714Z,18.83
2022-11-20T20:56:19.574Z,22.48
2022-11-20T20:58:46.479Z,15.13
2022-11-20T21:01:14.984Z,13.18
2022-11-20T21:03:41.728Z,13.70
2022-11-20T21:06:12.885Z,15.25
2022-11-20T21:08:40.907Z,16.48
2022-11-20T21:11:11.815Z,16.98
2022-11-20T21:13:40.031Z,17.08
2022-11-20T21:16:07.507Z,20.30
2022-11-20T21:18:34.939Z,21.23
2022-11-20T21:21:23.859Z,20.50
2022-11-20T21:23:52.157Z,21.05
2022-11-20T21:26:22.320Z,20.10
2022-11-20T21:28:50.065Z,17.55
2022-11-20T21:31:25.062Z,18.27
2022-11-20T21:33:53.276Z,19.35
2022-11-20T21:36:21.918Z,18.10
2022-11-20T21:38:49.262Z,15.98
2022-11-20T21:41:16.048Z,17.95
2022-11-20T21:43:44.268Z,18.80
2022-11-20T21:46:13.026Z,18.67
2022-11-20T21:48:40.825Z,18.33
2022-11-20T21:51:09.732Z,17.60
2022-11-20T21:53:37.147Z,16.63
2022-11-20T21:56:05.127Z,18.02
2022-11-20T21:58:32.054Z,17.42
2022-11-20T22:00:58.691Z,15.63
2022-11-20T22:03:25.559Z,16.00
2022-11-20T22:05:56.661Z,16.08
2022-11-20T22:08:24.207Z,16.90
2022-11-20T22:10:55.986Z,17.05
2022-11-20T22:13:42.538Z,16.42
2022-11-20T22:16:09.407Z,16.10
2022-11-20T22:18:36.404Z,16.02
2022-11-20T22:21:05.514Z,15.25
2022-11-20T22:23:32.354Z,14.48
2022-11-20T22:26:13.269Z,15.05
2022-11-20T22:28:40.332Z,14.98
2022-11-20T22:31:09.549Z,14.48
2022-11-20T22:33:38.078Z,14.23
2022-11-20T22:36:06.186Z,14.65
2022-11-20T22:38:38.874Z,15.00
2022-11-20T22:41:10.108Z,15.32
2022-11-20T22:43:37.075Z,16.30
2022-11-20T22:46:08.914Z,15.70
2022-11-20T22:48:36.729Z,15.43
2022-11-20T22:51:11.112Z,16.23
2022-11-20T22:53:37.987Z,15.77
2022-11-20T22:56:06.857Z,15.07
2022-11-20T22:58:35.158Z,15.05
2022-11-20T23:01:20.323Z,16.02
2022-11-20T23:03:49.077Z,15.48
2022-11-20T23:06:17.656Z,14.80
2022-11-20T23:08:45.366Z,14.77
2022-11-20T23:11:14.725Z,14.55
2022-11-20T23:13:41.721Z,15.05
2022-11-20T23:16:16.560Z,14.82
2022-11-20T23:18:43.886Z,14.65
2022-11-20T23:21:17.920Z,15.35
2022-11-20T23:23:48.730Z,15.10
2022-11-20T23:26:16.266Z,14.90
2022-11-20T23:28:43.969Z,14.68
2022-11-20T23:31:11.795Z,14.35
2022-11-20T23:33:39.913Z,16.58
2022-11-20T23:36:07.400Z,16.00
2022-11-20T23:38:34.673Z,15.40
2022-11-20T23:41:01.913Z,16.70
2022-11-20T23:43:29.236Z,16.10
2022-11-20T23:45:57.820Z,16.90
2022-11-20T23:48:26.104Z,16.38
2022-11-20T23:50:53.110Z,16.75
2022-11-20T23:53:20.650Z,16.15
2022-11-20T23:55:49.878Z,16.08
2022-11-20T23:58:17.138Z,15.18
